createdAt,value
2023-01-20T00:00:50.149Z,99941.25
2023-01-20T00:03:19.783Z,99944.69
2023-01-20T00:05:58.128Z,99950.06
2023-01-20T00:08:27.491Z,99953.91
2023-01-20T00:10:56.883Z,99967.66
2023-01-20T00:13:26.342Z,99974.97
2023-01-20T00:15:57.325Z,99962.22
2023-01-20T00:18:27.196Z,99973.59
2023-01-20T00:20:59.426Z,99976.34
2023-01-20T00:23:28.783Z,99970.34
2023-01-20T00:25:58.220Z,99970.88
2023-01-20T00:28:27.678Z,99972.50
2023-01-20T00:30:57.220Z,99969.63
2023-01-20T00:33:26.636Z,99968.91
2023-01-20T00:35:56.001Z,99965.22
2023-01-20T00:38:28.113Z,99969.47
2023-01-20T00:40:57.685Z,99973.00
2023-01-20T00:43:27.053Z,99969.47
2023-01-20T00:45:56.500Z,99969.53
2023-01-20T00:48:25.933Z,99970.88
2023-01-20T00:50:55.311Z,99969.06
2023-01-20T00:53:24.658Z,99978.97
2023-01-20T00:55:56.709Z,99970.66
2023-01-20T00:58:26.185Z,99979.28
2023-01-20T01:00:56.359Z,99979.88
2023-01-20T01:03:28.112Z,99981.50
2023-01-20T01:05:57.693Z,99978.41
2023-01-20T01:08:27.124Z,99988.50
2023-01-20T01:11:00.806Z,99983.00
2023-01-20T01:13:30.213Z,99985.88
2023-01-20T01:15:59.732Z,99989.59
2023-01-20T01:18:29.169Z,99996.63
2023-01-20T01:20:58.624Z,99997.56
2023-01-20T01:23:28.132Z,100001.44
2023-01-20T01:26:00.221Z,100002.56
2023-01-20T01:28:29.611Z,100005.06
2023-01-20T01:31:02.618Z,100016.13
2023-01-20T01:33:32.011Z,100018.06
2023-01-20T01:36:01.532Z,100014.50
2023-01-20T01:38:30.864Z,100017.94
2023-01-20T01:41:02.968Z,100026.84
2023-01-20T01:43:32.700Z,100027.50
2023-01-20T01:46:02.260Z,100020.91
2023-01-20T01:48:32.347Z,100029.84
2023-01-20T01:51:03.780Z,100034.59
2023-01-20T01:53:33.171Z,100034.31
2023-01-20T01:56:05.150Z,100037.53
2023-01-20T01:58:35.219Z,100045.16
2023-01-20T02:01:04.695Z,100049.84
2023-01-20T02:03:34.786Z,100042.69
2023-01-20T02:06:04.693Z,100054.22
2023-01-20T02:08:33.929Z,100056.22
2023-01-20T02:11:05.822Z,100054.63
2023-01-20T02:13:35.148Z,100058.34
2023-01-20T02:16:05.483Z,100065.06
2023-01-20T02:18:38.720Z,100066.31
2023-01-20T02:21:16.246Z,100060.38
2023-01-20T02:23:55.148Z,100057.84
2023-01-20T02:26:35.542Z,100063.66
2023-01-20T02:29:10.461Z,100055.13
2023-01-20T02:32:03.597Z,100065.25
2023-01-20T02:34:36.037Z,100065.53
2023-01-20T02:37:07.987Z,100066.22
2023-01-20T02:39:38.895Z,100070.16
2023-01-20T02:42:10.836Z,100072.63
2023-01-20T02:44:41.614Z,100073.19
2023-01-20T02:47:12.133Z,100070.88
2023-01-20T02:49:45.497Z,100073.63
2023-01-20T02:52:15.571Z,100080.47
2023-01-20T02:54:45.189Z,100084.94
2023-01-20T02:57:15.185Z,100091.53
2023-01-20T02:59:44.901Z,100091.06
2023-01-20T03:02:16.271Z,100098.47
2023-01-20T03:04:48.924Z,100089.56
2023-01-20T03:07:18.330Z,100092.56
2023-01-20T03:09:47.962Z,100093.34
2023-01-20T03:12:22.439Z,100096.34
2023-01-20T03:14:52.093Z,100102.25
2023-01-20T03:17:21.371Z,100094.00
2023-01-20T03:19:53.372Z,100103.28
2023-01-20T03:22:22.722Z,100106.53
2023-01-20T03:24:52.049Z,100110.78
2023-01-20T03:27:21.388Z,100110.63
2023-01-20T03:29:50.834Z,100120.34
2023-01-20T03:32:22.797Z,100123.34
2023-01-20T03:34:54.784Z,100122.44
2023-01-20T03:37:24.118Z,100127.25
2023-01-20T03:39:53.590Z,100132.47
2023-01-20T03:42:24.760Z,100136.31
2023-01-20T03:45:00.551Z,100133.56
2023-01-20T03:47:31.887Z,100130.53
2023-01-20T03:50:06.357Z,100149.84
2023-01-20T03:52:47.870Z,100145.94
2023-01-20T03:55:18.573Z,100152.75
2023-01-20T03:57:48.599Z,100152.50
2023-01-20T04:00:18.446Z,100155.50
2023-01-20T04:02:47.903Z,100158.56
2023-01-20T04:05:22.509Z,100165.34
2023-01-20T04:07:51.834Z,100164.56
2023-01-20T04:10:21.336Z,100170.88
2023-01-20T04:12:50.765Z,100169.31
2023-01-20T04:15:20.143Z,100174.91
2023-01-20T04:17:49.495Z,100169.09
2023-01-20T04:20:21.636Z,100169.78
2023-01-20T04:22:51.722Z,100176.66
2023-01-20T04:25:23.675Z,100174.19
2023-01-20T04:27:53.118Z,100178.72
2023-01-20T04:30:22.553Z,100173.50
2023-01-20T04:32:51.913Z,100174.03
2023-01-20T04:35:24.007Z,100181.53
2023-01-20T04:37:53.342Z,100176.88
2023-01-20T04:40:22.793Z,100174.28
2023-01-20T04:42:52.199Z,100181.72
2023-01-20T04:45:21.780Z,100174.09
2023-01-20T04:47:51.201Z,100183.88
2023-01-20T04:50:20.637Z,100186.44
2023-01-20T04:52:52.614Z,100184.81
2023-01-20T04:55:21.960Z,100189.56
2023-01-20T04:57:51.405Z,100183.44
2023-01-20T05:00:21.336Z,100183.19
2023-01-20T05:02:50.780Z,100195.22
2023-01-20T05:05:20.268Z,100194.22
2023-01-20T05:07:52.337Z,100203.69
2023-01-20T05:10:21.961Z,100204.38
2023-01-20T05:12:51.380Z,100207.50
2023-01-20T05:15:20.789Z,100204.59
2023-01-20T05:17:50.113Z,100211.72
2023-01-20T05:20:20.844Z,100221.22
2023-01-20T05:22:52.835Z,100220.91
2023-01-20T05:25:22.205Z,100227.03
2023-01-20T05:27:51.512Z,100227.84
2023-01-20T05:30:20.997Z,100226.47
2023-01-20T05:32:52.055Z,100224.38
2023-01-20T05:35:21.405Z,100233.84
2023-01-20T05:37:54.888Z,100228.34
2023-01-20T05:40:24.208Z,100235.88
2023-01-20T05:42:53.487Z,100232.06
2023-01-20T05:45:22.912Z,100243.28
2023-01-20T05:47:56.890Z,100246.88
2023-01-20T05:50:26.248Z,100245.66
2023-01-20T05:52:58.180Z,100245.38
2023-01-20T05:55:27.661Z,100251.09
2023-01-20T05:57:56.986Z,100263.47
2023-01-20T06:00:26.554Z,100272.47
2023-01-20T06:02:55.869Z,100269.84
2023-01-20T06:05:25.202Z,100269.41
2023-01-20T06:07:54.542Z,100271.50
2023-01-20T06:10:28.166Z,100273.44
2023-01-20T06:12:57.617Z,100279.88
2023-01-20T06:15:27.022Z,100286.19
2023-01-20T06:17:57.691Z,100283.16
2023-01-20T06:20:26.998Z,100286.56
2023-01-20T06:22:57.472Z,100290.53
2023-01-20T06:25:29.402Z,100290.97
2023-01-20T06:27:58.656Z,100292.47
2023-01-20T06:30:27.952Z,100298.59
2023-01-20T06:32:58.010Z,100301.34
2023-01-20T06:35:27.422Z,100293.06
2023-01-20T06:37:56.797Z,100298.72
2023-01-20T06:40:26.215Z,100299.84
2023-01-20T06:42:58.130Z,100288.78
2023-01-20T06:45:28.799Z,100294.44
2023-01-20T06:47:58.139Z,100300.22
2023-01-20T06:50:27.456Z,100300.63
2023-01-20T06:52:56.940Z,100302.97
2023-01-20T06:55:26.272Z,100308.75
2023-01-20T06:57:58.262Z,100311.53
2023-01-20T07:00:27.593Z,100316.03
2023-01-20T07:02:56.914Z,100325.22
2023-01-20T07:05:26.232Z,100325.63
2023-01-20T07:07:55.546Z,100328.09
2023-01-20T07:10:24.852Z,100328.50
2023-01-20T07:12:54.141Z,100335.47
2023-01-20T07:15:26.014Z,100344.56
2023-01-20T07:17:55.315Z,100337.56
2023-01-20T07:20:24.634Z,100336.75
2023-01-20T07:22:53.910Z,100341.41
2023-01-20T07:25:23.174Z,100350.19
2023-01-20T07:27:53.235Z,100356.38
2023-01-20T07:30:22.646Z,100357.78
2023-01-20T07:32:54.599Z,100361.91
2023-01-20T07:35:23.948Z,100369.84
2023-01-20T07:37:53.413Z,100380.41
2023-01-20T07:40:22.678Z,100378.19
2023-01-20T07:42:52.261Z,100378.50
2023-01-20T07:45:21.545Z,100380.00
2023-01-20T07:47:50.904Z,100378.19
2023-01-20T07:50:22.940Z,100386.72
2023-01-20T07:52:52.198Z,100387.38
2023-01-20T07:55:23.575Z,100387.66
2023-01-20T07:57:54.318Z,100387.81
2023-01-20T08:00:23.988Z,100395.16
2023-01-20T08:02:53.821Z,100393.91
2023-01-20T08:05:25.781Z,100390.66
2023-01-20T08:07:55.157Z,100395.53
2023-01-20T08:10:24.540Z,100392.22
2023-01-20T08:12:53.932Z,100405.78
2023-01-20T08:15:23.466Z,100410.81
2023-01-20T08:17:55.867Z,100409.59
2023-01-20T08:20:28.096Z,100411.41
2023-01-20T08:22:57.497Z,100417.47
2023-01-20T08:25:26.908Z,100420.47
2023-01-20T08:27:56.250Z,100419.72
2023-01-20T08:30:25.908Z,100420.69
2023-01-20T08:32:55.223Z,100434.56
2023-01-20T08:35:27.161Z,100428.22
2023-01-20T08:37:56.514Z,100434.00
2023-01-20T08:40:25.954Z,100431.44
2023-01-20T08:42:55.394Z,100444.06
2023-01-20T08:45:24.878Z,100440.50
2023-01-20T08:47:54.440Z,100447.03
2023-01-20T08:50:25.435Z,100440.78
2023-01-20T08:52:57.660Z,100431.56
2023-01-20T08:55:27.253Z,100435.56
2023-01-20T08:57:56.783Z,100437.94
2023-01-20T09:00:26.723Z,100441.34
2023-01-20T09:02:56.183Z,100436.38
2023-01-20T09:05:25.651Z,100430.91
2023-01-20T09:07:57.950Z,100438.56
2023-01-20T09:10:27.592Z,100440.63
2023-01-20T09:12:57.322Z,100440.94
2023-01-20T09:15:27.520Z,100438.28
2023-01-20T09:17:59.119Z,100436.09
2023-01-20T09:20:30.341Z,100447.53
2023-01-20T09:23:03.129Z,100448.94
2023-01-20T09:25:32.898Z,100447.34
2023-01-20T09:28:04.987Z,100446.06
2023-01-20T09:30:36.000Z,100452.84
2023-01-20T09:33:06.235Z,100452.88
2023-01-20T09:35:36.259Z,100452.63
2023-01-20T09:38:24.736Z,100464.72
2023-01-20T09:41:09.340Z,100462.06
2023-01-20T09:43:53.126Z,100464.34
2023-01-20T09:46:24.374Z,100465.69
2023-01-20T09:49:08.107Z,100462.28
2023-01-20T09:51:51.331Z,100465.28
2023-01-20T09:54:25.950Z,100467.38
2023-01-20T09:56:55.750Z,100461.00
2023-01-20T09:59:26.254Z,100456.81
2023-01-20T10:01:56.450Z,100464.34
2023-01-20T10:04:30.053Z,100458.78
2023-01-20T10:07:00.546Z,100459.69
2023-01-20T10:09:35.141Z,100459.59
2023-01-20T10:12:06.665Z,100459.84
2023-01-20T10:14:37.907Z,100467.41
2023-01-20T10:17:08.438Z,100478.69
2023-01-20T10:19:38.685Z,100470.41
2023-01-20T10:22:12.814Z,100464.69
2023-01-20T10:24:47.609Z,100457.28
2023-01-20T10:27:17.041Z,100468.53
2023-01-20T10:29:47.091Z,100463.28
2023-01-20T10:32:17.245Z,100466.25
2023-01-20T10:34:47.323Z,100465.53
2023-01-20T10:37:17.658Z,100458.03
2023-01-20T10:39:51.235Z,100461.28
2023-01-20T10:42:20.810Z,100462.38
2023-01-20T10:44:51.463Z,100463.25
2023-01-20T10:47:23.798Z,100454.84
2023-01-20T10:50:00.300Z,100455.50
2023-01-20T10:52:36.318Z,100453.88
2023-01-20T10:55:12.839Z,100448.44
2023-01-20T10:57:43.057Z,100445.97
2023-01-20T11:00:19.602Z,100444.91
2023-01-20T11:02:50.488Z,100441.63
2023-01-20T11:05:32.829Z,100432.28
2023-01-20T11:08:02.721Z,100452.50
2023-01-20T11:10:37.529Z,100443.19
2023-01-20T11:13:07.633Z,100449.78
2023-01-20T11:15:38.969Z,100451.03
2023-01-20T11:18:23.989Z,100440.53
2023-01-20T11:20:55.070Z,100434.41
2023-01-20T11:23:26.909Z,100450.16
2023-01-20T11:25:59.441Z,100442.34
2023-01-20T11:28:29.397Z,100444.34
2023-01-20T11:30:59.345Z,100440.38
2023-01-20T11:33:29.950Z,100440.72
2023-01-20T11:36:00.485Z,100441.38
2023-01-20T11:38:31.819Z,100443.53
2023-01-20T11:41:04.613Z,100438.78
2023-01-20T11:43:34.780Z,100441.88
2023-01-20T11:46:16.567Z,100437.13
2023-01-20T11:48:46.159Z,100437.00
2023-01-20T11:51:22.217Z,100442.38
2023-01-20T11:53:52.059Z,100438.91
2023-01-20T11:56:27.492Z,100432.84
2023-01-20T11:58:59.345Z,100441.09
2023-01-20T12:01:29.919Z,100442.56
2023-01-20T12:04:19.833Z,100451.38
2023-01-20T12:06:56.942Z,100447.97
2023-01-20T12:09:34.927Z,100452.75
2023-01-20T12:12:13.363Z,100451.19
2023-01-20T12:14:43.513Z,100447.31
2023-01-20T12:17:17.351Z,100445.81
2023-01-20T12:19:51.066Z,100448.31
2023-01-20T12:22:21.219Z,100446.50
2023-01-20T12:25:07.773Z,100452.88
2023-01-20T12:27:39.977Z,100454.81
2023-01-20T12:30:10.538Z,100458.59
2023-01-20T12:32:40.405Z,100462.19
2023-01-20T12:35:13.791Z,100468.22
2023-01-20T12:37:45.186Z,100466.75
2023-01-20T12:40:18.193Z,100462.53
2023-01-20T12:43:04.568Z,100463.63
2023-01-20T12:45:48.228Z,100457.66
2023-01-20T12:48:21.983Z,100466.53
2023-01-20T12:50:55.083Z,100464.09
2023-01-20T12:53:28.471Z,100456.28
2023-01-20T12:56:00.351Z,100467.41
2023-01-20T12:58:34.075Z,100471.03
2023-01-20T13:01:16.138Z,100467.84
2023-01-20T13:04:12.901Z,100471.81
2023-01-20T13:06:48.756Z,100463.56
2023-01-20T13:09:36.240Z,100467.38
2023-01-20T13:12:08.184Z,100468.53
2023-01-20T13:14:40.805Z,100460.31
2023-01-20T13:17:15.257Z,100461.50
2023-01-20T13:19:45.824Z,100450.84
2023-01-20T13:22:15.807Z,100451.94
2023-01-20T13:24:46.652Z,100449.88
2023-01-20T13:27:27.379Z,100454.16
2023-01-20T13:29:57.848Z,100460.66
2023-01-20T13:32:37.370Z,100462.31
2023-01-20T13:35:29.993Z,100457.88
2023-01-20T13:37:59.887Z,100461.97
2023-01-20T13:40:45.943Z,100457.91
2023-01-20T13:43:30.279Z,100455.72
2023-01-20T13:46:15.374Z,100462.91
2023-01-20T13:49:09.190Z,100464.25
2023-01-20T13:51:48.355Z,100464.59
2023-01-20T13:54:34.363Z,100475.72
2023-01-20T13:57:20.303Z,100473.75
2023-01-20T13:59:49.798Z,100477.34
2023-01-20T14:02:20.123Z,100472.50
2023-01-20T14:04:52.711Z,100487.41
2023-01-20T14:07:25.411Z,100475.94
2023-01-20T14:09:55.003Z,100480.09
2023-01-20T14:12:24.640Z,100486.31
2023-01-20T14:14:54.109Z,100498.50
2023-01-20T14:17:24.687Z,100488.75
2023-01-20T14:19:57.424Z,100490.81
2023-01-20T14:22:27.537Z,100489.50
2023-01-20T14:24:57.536Z,100499.69
2023-01-20T14:27:28.316Z,100496.34
2023-01-20T14:29:59.832Z,100500.72
2023-01-20T14:32:30.089Z,100498.63
2023-01-20T14:35:02.116Z,100491.69
2023-01-20T14:37:31.903Z,100499.59
2023-01-20T14:40:02.501Z,100513.13
2023-01-20T14:42:31.953Z,100513.81
2023-01-20T14:45:01.245Z,100520.22
2023-01-20T14:47:31.084Z,100529.31
2023-01-20T14:50:03.235Z,100533.19
2023-01-20T14:52:32.983Z,100527.50
2023-01-20T14:55:02.709Z,100533.81
2023-01-20T14:57:32.116Z,100524.03
2023-01-20T15:00:14.363Z,100530.66
2023-01-20T15:02:44.621Z,100531.03
2023-01-20T15:05:28.093Z,100538.31
2023-01-20T15:08:18.705Z,100530.19
2023-01-20T15:10:48.111Z,100534.63
2023-01-20T15:13:24.474Z,100535.25
2023-01-20T15:15:53.885Z,100538.69
2023-01-20T15:18:23.875Z,100540.19
2023-01-20T15:21:15.597Z,100542.97
2023-01-20T15:23:51.364Z,100548.28
2023-01-20T15:26:24.505Z,100549.81
2023-01-20T15:28:53.831Z,100556.00
2023-01-20T15:31:23.236Z,100568.31
2023-01-20T15:33:52.788Z,100576.19
2023-01-20T15:36:26.242Z,100575.66
2023-01-20T15:38:55.607Z,100580.00
2023-01-20T15:41:25.010Z,100589.06
2023-01-20T15:43:54.354Z,100581.13
2023-01-20T15:46:23.711Z,100588.69
2023-01-20T15:48:52.992Z,100584.09
2023-01-20T15:51:22.486Z,100592.53
2023-01-20T15:53:54.469Z,100582.13
2023-01-20T15:56:24.313Z,100593.38
2023-01-20T15:58:53.832Z,100588.47
2023-01-20T16:01:24.172Z,100601.63
2023-01-20T16:03:55.041Z,100607.03
2023-01-20T16:06:25.187Z,100612.16
2023-01-20T16:08:57.163Z,100617.06
2023-01-20T16:11:26.611Z,100617.38
2023-01-20T16:13:56.103Z,100611.16
2023-01-20T16:16:29.628Z,100611.28
2023-01-20T16:18:59.422Z,100615.50
2023-01-20T16:21:28.990Z,100626.22
2023-01-20T16:24:00.908Z,100630.78
2023-01-20T16:26:30.597Z,100627.44
2023-01-20T16:29:00.074Z,100624.31
2023-01-20T16:31:29.687Z,100630.75
2023-01-20T16:33:58.980Z,100634.81
2023-01-20T16:36:28.668Z,100632.91
2023-01-20T16:38:57.942Z,100636.78
2023-01-20T16:41:30.844Z,100639.63
2023-01-20T16:44:00.656Z,100639.31
2023-01-20T16:46:31.596Z,100648.13
2023-01-20T16:49:02.161Z,100639.88
2023-01-20T16:51:31.658Z,100640.75
2023-01-20T16:54:01.047Z,100638.16
2023-01-20T16:56:33.176Z,100640.69
2023-01-20T16:59:03.033Z,100640.44
2023-01-20T17:01:33.234Z,100635.50
2023-01-20T17:04:02.815Z,100642.66
2023-01-20T17:06:33.372Z,100642.13
2023-01-20T17:09:02.981Z,100641.00
2023-01-20T17:11:35.277Z,100643.97
2023-01-20T17:14:04.960Z,100648.06
2023-01-20T17:16:34.370Z,100644.28
2023-01-20T17:19:03.762Z,100642.94
2023-01-20T17:21:33.610Z,100649.38
2023-01-20T17:24:03.291Z,100648.06
2023-01-20T17:26:37.108Z,100652.97
2023-01-20T17:29:07.137Z,100653.84
2023-01-20T17:31:37.123Z,100652.75
2023-01-20T17:34:06.621Z,100660.97
2023-01-20T17:36:36.273Z,100660.97
2023-01-20T17:39:05.609Z,100656.25
2023-01-20T17:41:37.467Z,100659.69
2023-01-20T17:44:08.073Z,100665.53
2023-01-20T17:46:37.520Z,100660.13
2023-01-20T17:49:08.162Z,100656.19
2023-01-20T17:51:37.413Z,100658.94
2023-01-20T17:54:06.675Z,100657.69
2023-01-20T17:56:38.575Z,100660.06
2023-01-20T17:59:07.979Z,100668.63
2023-01-20T18:01:37.313Z,100682.97
2023-01-20T18:04:10.367Z,100665.06
2023-01-20T18:06:40.004Z,100666.34
2023-01-20T18:09:09.693Z,100670.84
2023-01-20T18:11:43.645Z,100681.47
2023-01-20T18:14:13.181Z,100678.69
2023-01-20T18:16:43.156Z,100678.16
2023-01-20T18:19:12.517Z,100679.06
2023-01-20T18:21:41.888Z,100683.63
2023-01-20T18:24:12.704Z,100680.03
2023-01-20T18:26:45.319Z,100683.47
2023-01-20T18:29:15.717Z,100689.75
2023-01-20T18:31:46.690Z,100686.56
2023-01-20T18:34:16.526Z,100681.19
2023-01-20T18:36:47.676Z,100685.63
2023-01-20T18:39:17.797Z,100684.00
2023-01-20T18:41:50.055Z,100691.66
2023-01-20T18:44:19.785Z,100682.28
2023-01-20T18:46:49.145Z,100689.44
2023-01-20T18:49:18.961Z,100689.94
2023-01-20T18:51:48.523Z,100692.22
2023-01-20T18:54:21.019Z,100694.91
2023-01-20T18:56:53.194Z,100695.09
2023-01-20T18:59:22.693Z,100694.91
2023-01-20T19:01:52.442Z,100692.53
2023-01-20T19:04:22.052Z,100692.25
2023-01-20T19:06:51.752Z,100696.34
2023-01-20T19:09:21.316Z,100697.44
2023-01-20T19:11:53.467Z,100701.88
2023-01-20T19:14:22.982Z,100692.88
2023-01-20T19:16:52.316Z,100693.38
2023-01-20T19:19:21.942Z,100696.81
2023-01-20T19:21:52.676Z,100700.56
2023-01-20T19:24:22.489Z,100694.53
2023-01-20T19:26:54.434Z,100705.38
2023-01-20T19:29:23.672Z,100708.75
2023-01-20T19:31:52.966Z,100705.06
2023-01-20T19:34:22.509Z,100706.50
2023-01-20T19:36:51.985Z,100716.34
2023-01-20T19:39:21.622Z,100711.50
2023-01-20T19:41:51.308Z,100719.75
2023-01-20T19:44:23.318Z,100721.09
2023-01-20T19:46:52.726Z,100715.84
2023-01-20T19:49:22.267Z,100723.88
2023-01-20T19:51:51.668Z,100721.72
2023-01-20T19:54:21.521Z,100725.69
2023-01-20T19:56:51.083Z,100728.44
2023-01-20T19:59:23.151Z,100728.63
2023-01-20T20:01:52.747Z,100730.50
2023-01-20T20:04:24.156Z,100730.28
2023-01-20T20:06:53.797Z,100740.16
2023-01-20T20:09:26.130Z,100741.41
2023-01-20T20:11:56.130Z,100738.28
2023-01-20T20:14:29.683Z,100733.50
2023-01-20T20:16:59.041Z,100740.44
2023-01-20T20:19:28.875Z,100748.53
2023-01-20T20:21:58.878Z,100748.88
2023-01-20T20:24:30.657Z,100750.84
2023-01-20T20:27:03.307Z,100749.31
2023-01-20T20:29:36.261Z,100746.97
2023-01-20T20:32:05.565Z,100761.28
2023-01-20T20:34:35.193Z,100761.00
2023-01-20T20:37:04.669Z,100765.88
2023-01-20T20:39:35.044Z,100764.47
2023-01-20T20:42:05.178Z,100763.97
2023-01-20T20:44:37.349Z,100763.25
2023-01-20T20:47:07.140Z,100770.56
2023-01-20T20:49:36.667Z,100768.63
2023-01-20T20:52:09.107Z,100771.34
2023-01-20T20:54:39.412Z,100773.41
2023-01-20T20:57:11.899Z,100766.72
2023-01-20T21:10:21.746Z,100777.47
2023-01-20T21:37:38.474Z,100799.50
2023-01-20T21:40:09.039Z,100802.31
2023-01-20T21:42:38.690Z,100808.00
2023-01-20T21:45:06.019Z,100805.84
2023-01-20T21:47:35.546Z,100804.66
2023-01-20T21:50:17.637Z,100807.28
2023-01-20T21:52:49.949Z,100815.56
2023-01-20T21:55:19.747Z,100818.97
2023-01-20T21:57:51.205Z,100830.66
2023-01-20T22:00:21.557Z,100821.25
2023-01-20T22:02:51.153Z,100827.56
2023-01-20T22:05:20.897Z,100833.91
2023-01-20T22:08:02.615Z,100839.41
2023-01-20T22:10:32.699Z,100840.06
2023-01-20T22:13:02.057Z,100842.00
2023-01-20T22:15:31.644Z,100840.00
2023-01-20T22:18:01.068Z,100846.13
2023-01-20T22:20:31.059Z,100852.06
2023-01-20T22:23:03.155Z,100857.84
2023-01-20T22:25:32.703Z,100861.25
2023-01-20T22:28:02.121Z,100856.53
2023-01-20T22:30:31.732Z,100865.28
2023-01-20T22:33:01.428Z,100866.81
2023-01-20T22:35:31.151Z,100861.16
2023-01-20T22:38:04.260Z,100873.44
2023-01-20T22:40:34.378Z,100878.88
2023-01-20T22:43:03.843Z,100880.88
2023-01-20T22:45:33.337Z,100883.38
2023-01-20T22:48:02.855Z,100884.91
2023-01-20T22:50:32.266Z,100885.03
2023-01-20T22:53:04.417Z,100883.84
2023-01-20T22:55:33.954Z,100883.38
2023-01-20T22:58:03.411Z,100888.69
2023-01-20T23:00:32.795Z,100896.69
2023-01-20T23:03:02.499Z,100894.72
2023-01-20T23:05:32.561Z,100898.72
2023-01-20T23:08:04.685Z,100901.19
2023-01-20T23:10:49.143Z,100908.88
2023-01-20T23:13:18.798Z,100903.09
2023-01-20T23:15:48.437Z,100913.59
2023-01-20T23:18:18.179Z,100908.66
2023-01-20T23:20:52.654Z,100916.19
2023-01-20T23:23:25.278Z,100915.63
2023-01-20T23:26:03.861Z,100921.19
2023-01-20T23:28:33.785Z,100914.34
2023-01-20T23:31:08.176Z,100926.72
2023-01-20T23:33:41.882Z,100928.13
2023-01-20T23:36:14.140Z,100929.78
2023-01-20T23:38:49.077Z,100932.97
2023-01-20T23:41:21.305Z,100935.59
2023-01-20T23:43:56.923Z,100934.28
2023-01-20T23:46:29.449Z,100935.44
2023-01-20T23:49:03.596Z,100947.97
2023-01-20T23:51:36.028Z,100943.72
2023-01-20T23:54:34.688Z,100946.53
2023-01-20T23:57:23.273Z,100944.22
